sensor_id;sensor_type;location;lat;lon;timestamp;P1;durP1;ratioP1;P2;durP2;ratioP2
54899;SDS011;40801;41.924;25.562;2022-07-11T00:02:08;4.97;;;4.70;;
54899;SDS011;40801;41.924;25.562;2022-07-11T00:04:34;4.60;;;4.30;;
54899;SDS011;40801;41.924;25.562;2022-07-11T00:07:00;4.85;;;4.60;;
54899;SDS011;40801;41.924;25.562;2022-07-11T00:09:27;4.40;;;4.20;;
54899;SDS011;40801;41.924;25.562;2022-07-11T00:11:53;5.10;;;4.80;;
54899;SDS011;40801;41.924;25.562;2022-07-11T00:14:19;4.53;;;4.32;;
54899;SDS011;40801;41.924;25.562;2022-07-11T00:16:44;4.47;;;4.18;;
54899;SDS011;40801;41.924;25.562;2022-07-11T00:19:10;4.05;;;3.88;;
54899;SDS011;40801;41.924;25.562;2022-07-11T00:21:36;4.65;;;4.45;;
54899;SDS011;40801;41.924;25.562;2022-07-11T00:24:02;4.70;;;4.50;;
54899;SDS011;40801;41.924;25.562;2022-07-11T00:26:28;5.07;;;4.78;;
54899;SDS011;40801;41.924;25.562;2022-07-11T00:28:54;4.90;;;4.50;;
54899;SDS011;40801;41.924;25.562;2022-07-11T00:31:20;4.72;;;4.40;;
54899;SDS011;40801;41.924;25.562;2022-07-11T00:33:45;4.60;;;4.30;;
54899;SDS011;40801;41.924;25.562;2022-07-11T00:36:11;4.75;;;4.50;;
54899;SDS011;40801;41.924;25.562;2022-07-11T00:38:37;4.82;;;4.55;;
54899;SDS011;40801;41.924;25.562;2022-07-11T00:41:02;4.88;;;4.47;;
54899;SDS011;40801;41.924;25.562;2022-07-11T00:44:12;4.30;;;4.10;;
54899;SDS011;40801;41.924;25.562;2022-07-11T00:46:18;4.13;;;3.92;;
54899;SDS011;40801;41.924;25.562;2022-07-11T00:48:44;4.32;;;4.05;;
54899;SDS011;40801;41.924;25.562;2022-07-11T00:51:10;4.03;;;3.83;;
54899;SDS011;40801;41.924;25.562;2022-07-11T00:53:36;4.55;;;4.28;;
54899;SDS011;40801;41.924;25.562;2022-07-11T00:56:02;4.40;;;4.20;;
54899;SDS011;40801;41.924;25.562;2022-07-11T00:58:27;4.57;;;4.30;;
54899;SDS011;40801;41.924;25.562;2022-07-11T01:00:53;4.55;;;4.35;;
54899;SDS011;40801;41.924;25.562;2022-07-11T01:03:19;4.80;;;4.60;;
54899;SDS011;40801;41.924;25.562;2022-07-11T01:05:44;4.78;;;4.38;;
54899;SDS011;40801;41.924;25.562;2022-07-11T01:08:10;4.13;;;3.92;;
54899;SDS011;40801;41.924;25.562;2022-07-11T01:10:35;4.40;;;4.10;;
54899;SDS011;40801;41.924;25.562;2022-07-11T01:13:01;4.60;;;4.30;;
54899;SDS011;40801;41.924;25.562;2022-07-11T01:15:26;4.40;;;4.20;;
54899;SDS011;40801;41.924;25.562;2022-07-11T01:17:52;4.53;;;4.32;;
54899;SDS011;40801;41.924;25.562;2022-07-11T01:20:18;4.43;;;4.03;;
54899;SDS011;40801;41.924;25.562;2022-07-11T01:22:48;4.22;;;3.95;;
54899;SDS011;40801;41.924;25.562;2022-07-11T01:25:17;4.55;;;4.22;;
54899;SDS011;40801;41.924;25.562;2022-07-11T01:27:56;4.40;;;4.20;;
54899;SDS011;40801;41.924;25.562;2022-07-11T01:30:25;4.22;;;4.05;;
54899;SDS011;40801;41.924;25.562;2022-07-11T01:32:52;4.30;;;4.18;;
54899;SDS011;40801;41.924;25.562;2022-07-11T01:35:19;4.47;;;4.30;;
54899;SDS011;40801;41.924;25.562;2022-07-11T01:37:45;4.57;;;4.38;;
54899;SDS011;40801;41.924;25.562;2022-07-11T01:40:11;4.95;;;4.65;;
54899;SDS011;40801;41.924;25.562;2022-07-11T01:42:36;5.10;;;4.68;;
54899;SDS011;40801;41.924;25.562;2022-07-11T01:45:02;4.75;;;4.55;;
54899;SDS011;40801;41.924;25.562;2022-07-11T01:47:28;4.95;;;4.65;;
54899;SDS011;40801;41.924;25.562;2022-07-11T01:49:54;4.72;;;4.53;;
54899;SDS011;40801;41.924;25.562;2022-07-11T01:52:20;4.78;;;4.47;;
54899;SDS011;40801;41.924;25.562;2022-07-11T01:54:46;4.88;;;4.63;;
54899;SDS011;40801;41.924;25.562;2022-07-11T01:57:11;4.90;;;4.60;;
54899;SDS011;40801;41.924;25.562;2022-07-11T01:59:36;4.40;;;4.28;;
54899;SDS011;40801;41.924;25.562;2022-07-11T02:02:02;4.57;;;4.40;;
54899;SDS011;40801;41.924;25.562;2022-07-11T02:04:27;4.72;;;4.43;;
54899;SDS011;40801;41.924;25.562;2022-07-11T02:06:53;4.60;;;4.40;;
54899;SDS011;40801;41.924;25.562;2022-07-11T02:09:18;4.80;;;4.50;;
54899;SDS011;40801;41.924;25.562;2022-07-11T02:11:44;5.28;;;4.97;;
54899;SDS011;40801;41.924;25.562;2022-07-11T02:14:09;4.78;;;4.55;;
54899;SDS011;40801;41.924;25.562;2022-07-11T02:16:34;4.40;;;4.20;;
54899;SDS011;40801;41.924;25.562;2022-07-11T02:19:00;4.72;;;4.43;;
54899;SDS011;40801;41.924;25.562;2022-07-11T02:21:25;4.60;;;4.40;;
54899;SDS011;40801;41.924;25.562;2022-07-11T02:23:51;4.75;;;4.55;;
54899;SDS011;40801;41.924;25.562;2022-07-11T02:26:16;4.70;;;4.40;;
54899;SDS011;40801;41.924;25.562;2022-07-11T02:28:41;6.50;;;5.70;;
54899;SDS011;40801;41.924;25.562;2022-07-11T02:31:07;5.35;;;4.90;;
54899;SDS011;40801;41.924;25.562;2022-07-11T02:33:33;4.72;;;4.53;;
54899;SDS011;40801;41.924;25.562;2022-07-11T02:35:59;4.70;;;4.50;;
54899;SDS011;40801;41.924;25.562;2022-07-11T02:38:24;4.88;;;4.68;;
54899;SDS011;40801;41.924;25.562;2022-07-11T02:40:51;5.15;;;4.85;;
54899;SDS011;40801;41.924;25.562;2022-07-11T02:43:16;4.50;;;4.40;;
54899;SDS011;40801;41.924;25.562;2022-07-11T02:45:42;4.93;;;4.72;;
54899;SDS011;40801;41.924;25.562;2022-07-11T02:48:07;5.05;;;4.80;;
54899;SDS011;40801;41.924;25.562;2022-07-11T02:50:33;5.13;;;4.93;;
54899;SDS011;40801;41.924;25.562;2022-07-11T02:52:58;4.97;;;4.78;;
54899;SDS011;40801;41.924;25.562;2022-07-11T02:55:23;4.85;;;4.65;;
54899;SDS011;40801;41.924;25.562;2022-07-11T02:57:49;4.78;;;4.57;;
54899;SDS011;40801;41.924;25.562;2022-07-11T03:00:15;5.10;;;4.90;;
54899;SDS011;40801;41.924;25.562;2022-07-11T03:02:42;4.85;;;4.65;;
54899;SDS011;40801;41.924;25.562;2022-07-11T03:05:08;4.78;;;4.57;;
54899;SDS011;40801;41.924;25.562;2022-07-11T03:07:34;4.82;;;4.55;;
54899;SDS011;40801;41.924;25.562;2022-07-11T03:09:59;4.47;;;4.28;;
54899;SDS011;40801;41.924;25.562;2022-07-11T03:12:25;4.50;;;4.40;;
54899;SDS011;40801;41.924;25.562;2022-07-11T03:14:50;4.93;;;4.72;;
54899;SDS011;40801;41.924;25.562;2022-07-11T03:17:16;5.00;;;4.60;;
54899;SDS011;40801;41.924;25.562;2022-07-11T03:19:43;4.82;;;4.35;;
54899;SDS011;40801;41.924;25.562;2022-07-11T03:22:08;4.88;;;4.47;;
54899;SDS011;40801;41.924;25.562;2022-07-11T03:24:34;4.90;;;4.63;;
54899;SDS011;40801;41.924;25.562;2022-07-11T03:26:59;4.40;;;4.20;;
54899;SDS011;40801;41.924;25.562;2022-07-11T03:29:25;5.13;;;4.78;;
54899;SDS011;40801;41.924;25.562;2022-07-11T03:31:50;4.28;;;4.07;;
54899;SDS011;40801;41.924;25.562;2022-07-11T03:34:15;4.80;;;4.60;;
54899;SDS011;40801;41.924;25.562;2022-07-11T03:36:41;4.72;;;4.40;;
54899;SDS011;40801;41.924;25.562;2022-07-11T03:39:06;4.57;;;4.38;;
54899;SDS011;40801;41.924;25.562;2022-07-11T03:41:32;4.97;;;4.78;;
54899;SDS011;40801;41.924;25.562;2022-07-11T03:43:57;4.50;;;4.30;;
54899;SDS011;40801;41.924;25.562;2022-07-11T03:46:23;4.53;;;4.28;;
54899;SDS011;40801;41.924;25.562;2022-07-11T03:48:48;4.63;;;4.32;;
54899;SDS011;40801;41.924;25.562;2022-07-11T03:51:15;4.80;;;4.60;;
54899;SDS011;40801;41.924;25.562;2022-07-11T03:53:41;4.78;;;4.47;;
54899;SDS011;40801;41.924;25.562;2022-07-11T03:56:07;5.10;;;4.80;;
54899;SDS011;40801;41.924;25.562;2022-07-11T03:58:32;5.32;;;5.03;;
54899;SDS011;40801;41.924;25.562;2022-07-11T04:00:58;4.43;;;4.18;;
54899;SDS011;40801;41.924;25.562;2022-07-11T04:03:23;5.35;;;5.07;;
54899;SDS011;40801;41.924;25.562;2022-07-11T04:05:50;5.10;;;4.80;;
54899;SDS011;40801;41.924;25.562;2022-07-11T04:08:16;4.82;;;4.57;;
54899;SDS011;40801;41.924;25.562;2022-07-11T04:10:42;4.97;;;4.72;;
54899;SDS011;40801;41.924;25.562;2022-07-11T04:13:08;5.18;;;4.88;;
54899;SDS011;40801;41.924;25.562;2022-07-11T04:15:34;4.55;;;4.35;;
54899;SDS011;40801;41.924;25.562;2022-07-11T04:17:59;4.95;;;4.60;;
54899;SDS011;40801;41.924;25.562;2022-07-11T04:20:25;4.57;;;4.47;;
54899;SDS011;40801;41.924;25.562;2022-07-11T04:22:50;4.78;;;4.57;;
54899;SDS011;40801;41.924;25.562;2022-07-11T04:25:15;4.88;;;4.47;;
54899;SDS011;40801;41.924;25.562;2022-07-11T04:27:41;5.20;;;4.65;;
54899;SDS011;40801;41.924;25.562;2022-07-11T04:30:07;4.68;;;4.38;;
54899;SDS011;40801;41.924;25.562;2022-07-11T04:32:33;5.63;;;5.20;;
54899;SDS011;40801;41.924;25.562;2022-07-11T04:35:01;4.75;;;4.55;;
54899;SDS011;40801;41.924;25.562;2022-07-11T04:37:26;4.53;;;4.25;;
54899;SDS011;40801;41.924;25.562;2022-07-11T04:39:52;4.85;;;4.55;;
54899;SDS011;40801;41.924;25.562;2022-07-11T04:42:17;4.82;;;4.63;;
54899;SDS011;40801;41.924;25.562;2022-07-11T04:44:43;4.47;;;4.13;;
54899;SDS011;40801;41.924;25.562;2022-07-11T04:47:08;4.53;;;4.32;;
54899;SDS011;40801;41.924;25.562;2022-07-11T04:49:34;4.80;;;4.50;;
54899;SDS011;40801;41.924;25.562;2022-07-11T04:52:00;4.75;;;4.40;;
54899;SDS011;40801;41.924;25.562;2022-07-11T04:54:26;4.88;;;4.47;;
54899;SDS011;40801;41.924;25.562;2022-07-11T04:56:51;4.40;;;4.10;;
54899;SDS011;40801;41.924;25.562;2022-07-11T04:59:17;5.30;;;4.90;;
54899;SDS011;40801;41.924;25.562;2022-07-11T05:01:42;4.68;;;4.38;;
54899;SDS011;40801;41.924;25.562;2022-07-11T05:04:07;7.28;;;4.18;;
54899;SDS011;40801;41.924;25.562;2022-07-11T05:06:33;4.13;;;3.83;;
54899;SDS011;40801;41.924;25.562;2022-07-11T05:08:59;3.97;;;3.78;;
54899;SDS011;40801;41.924;25.562;2022-07-11T05:11:24;5.47;;;4.55;;
54899;SDS011;40801;41.924;25.562;2022-07-11T05:13:50;4.35;;;4.05;;
54899;SDS011;40801;41.924;25.562;2022-07-11T05:16:15;4.05;;;3.75;;
54899;SDS011;40801;41.924;25.562;2022-07-11T05:18:40;4.30;;;4.10;;
54899;SDS011;40801;41.924;25.562;2022-07-11T05:21:06;4.03;;;3.83;;
54899;SDS011;40801;41.924;25.562;2022-07-11T05:23:31;4.20;;;3.90;;
54899;SDS011;40801;41.924;25.562;2022-07-11T05:25:57;3.92;;;3.72;;
54899;SDS011;40801;41.924;25.562;2022-07-11T05:28:22;5.35;;;5.03;;
54899;SDS011;40801;41.924;25.562;2022-07-11T05:30:48;5.32;;;4.20;;
54899;SDS011;40801;41.924;25.562;2022-07-11T05:33:13;3.78;;;3.55;;
54899;SDS011;40801;41.924;25.562;2022-07-11T05:35:39;3.65;;;3.45;;
54899;SDS011;40801;41.924;25.562;2022-07-11T05:38:04;4.38;;;4.07;;
54899;SDS011;40801;41.924;25.562;2022-07-11T05:40:29;3.53;;;3.42;;
54899;SDS011;40801;41.924;25.562;2022-07-11T05:42:55;3.88;;;3.67;;
54899;SDS011;40801;41.924;25.562;2022-07-11T05:45:20;4.13;;;3.83;;
54899;SDS011;40801;41.924;25.562;2022-07-11T05:47:46;4.50;;;4.20;;
54899;SDS011;40801;41.924;25.562;2022-07-11T05:50:11;4.38;;;4.03;;
54899;SDS011;40801;41.924;25.562;2022-07-11T05:52:37;4.22;;;4.00;;
54899;SDS011;40801;41.924;25.562;2022-07-11T05:55:02;4.10;;;3.80;;
54899;SDS011;40801;41.924;25.562;2022-07-11T05:57:28;3.53;;;3.30;;
54899;SDS011;40801;41.924;25.562;2022-07-11T05:59:54;6.00;;;3.72;;
54899;SDS011;40801;41.924;25.562;2022-07-11T06:02:19;3.97;;;3.50;;
54899;SDS011;40801;41.924;25.562;2022-07-11T06:04:45;5.47;;;3.65;;
54899;SDS011;40801;41.924;25.562;2022-07-11T06:07:10;4.65;;;4.25;;
54899;SDS011;40801;41.924;25.562;2022-07-11T06:09:36;5.47;;;3.83;;
54899;SDS011;40801;41.924;25.562;2022-07-11T06:12:02;4.13;;;3.83;;
54899;SDS011;40801;41.924;25.562;2022-07-11T06:14:28;3.95;;;3.40;;
54899;SDS011;40801;41.924;25.562;2022-07-11T06:16:53;3.95;;;3.40;;
54899;SDS011;40801;41.924;25.562;2022-07-11T06:19:19;5.28;;;3.78;;
54899;SDS011;40801;41.924;25.562;2022-07-11T06:21:44;3.60;;;3.20;;
54899;SDS011;40801;41.924;25.562;2022-07-11T06:24:10;4.25;;;3.70;;
54899;SDS011;40801;41.924;25.562;2022-07-11T06:26:36;4.55;;;3.15;;
54899;SDS011;40801;41.924;25.562;2022-07-11T06:29:01;5.90;;;3.42;;
54899;SDS011;40801;41.924;25.562;2022-07-11T06:31:27;7.15;;;3.05;;
54899;SDS011;40801;41.924;25.562;2022-07-11T06:33:53;4.50;;;2.85;;
54899;SDS011;40801;41.924;25.562;2022-07-11T06:36:23;2.90;;;2.80;;
54899;SDS011;40801;41.924;25.562;2022-07-11T06:38:52;2.63;;;2.53;;
54899;SDS011;40801;41.924;25.562;2022-07-11T06:41:18;5.60;;;2.95;;
54899;SDS011;40801;41.924;25.562;2022-07-11T06:43:44;6.78;;;3.25;;
54899;SDS011;40801;41.924;25.562;2022-07-11T06:46:12;6.43;;;3.30;;
54899;SDS011;40801;41.924;25.562;2022-07-11T06:48:39;8.40;;;3.15;;
54899;SDS011;40801;41.924;25.562;2022-07-11T06:51:04;3.33;;;2.97;;
54899;SDS011;40801;41.924;25.562;2022-07-11T06:53:30;6.28;;;3.22;;
54899;SDS011;40801;41.924;25.562;2022-07-11T06:55:56;3.75;;;3.42;;
54899;SDS011;40801;41.924;25.562;2022-07-11T06:58:22;2.88;;;2.70;;
54899;SDS011;40801;41.924;25.562;2022-07-11T07:00:57;3.53;;;2.70;;
54899;SDS011;40801;41.924;25.562;2022-07-11T07:03:23;3.03;;;2.83;;
54899;SDS011;40801;41.924;25.562;2022-07-11T07:05:49;3.65;;;3.28;;
54899;SDS011;40801;41.924;25.562;2022-07-11T07:08:14;3.05;;;2.90;;
54899;SDS011;40801;41.924;25.562;2022-07-11T07:10:40;4.55;;;2.70;;
54899;SDS011;40801;41.924;25.562;2022-07-11T07:13:05;2.67;;;2.47;;
54899;SDS011;40801;41.924;25.562;2022-07-11T07:15:31;3.00;;;2.80;;
54899;SDS011;40801;41.924;25.562;2022-07-11T07:17:56;2.95;;;2.75;;
54899;SDS011;40801;41.924;25.562;2022-07-11T07:20:21;3.28;;;3.08;;
54899;SDS011;40801;41.924;25.562;2022-07-11T07:22:47;2.97;;;2.70;;
54899;SDS011;40801;41.924;25.562;2022-07-11T07:25:12;2.90;;;2.70;;
54899;SDS011;40801;41.924;25.562;2022-07-11T07:27:38;2.80;;;2.60;;
54899;SDS011;40801;41.924;25.562;2022-07-11T07:30:03;3.22;;;3.00;;
54899;SDS011;40801;41.924;25.562;2022-07-11T07:32:29;3.15;;;2.92;;
54899;SDS011;40801;41.924;25.562;2022-07-11T07:34:54;2.42;;;2.40;;
54899;SDS011;40801;41.924;25.562;2022-07-11T07:37:20;2.85;;;2.75;;
54899;SDS011;40801;41.924;25.562;2022-07-11T07:39:45;3.55;;;2.67;;
54899;SDS011;40801;41.924;25.562;2022-07-11T07:42:11;3.80;;;3.15;;
54899;SDS011;40801;41.924;25.562;2022-07-11T07:44:36;4.38;;;2.50;;
54899;SDS011;40801;41.924;25.562;2022-07-11T07:47:02;3.13;;;2.92;;
54899;SDS011;40801;41.924;25.562;2022-07-11T07:49:27;2.50;;;2.40;;
54899;SDS011;40801;41.924;25.562;2022-07-11T07:51:53;2.55;;;2.35;;
54899;SDS011;40801;41.924;25.562;2022-07-11T07:54:18;2.88;;;2.47;;
54899;SDS011;40801;41.924;25.562;2022-07-11T07:56:44;2.80;;;2.60;;
54899;SDS011;40801;41.924;25.562;2022-07-11T07:59:10;3.80;;;2.55;;
54899;SDS011;40801;41.924;25.562;2022-07-11T08:01:35;2.78;;;2.60;;
54899;SDS011;40801;41.924;25.562;2022-07-11T08:04:01;5.03;;;2.70;;
54899;SDS011;40801;41.924;25.562;2022-07-11T08:06:30;2.63;;;2.47;;
54899;SDS011;40801;41.924;25.562;2022-07-11T08:08:57;2.97;;;2.72;;
54899;SDS011;40801;41.924;25.562;2022-07-11T08:11:23;2.60;;;2.40;;
54899;SDS011;40801;41.924;25.562;2022-07-11T08:13:50;2.65;;;2.45;;
54899;SDS011;40801;41.924;25.562;2022-07-11T08:16:15;2.72;;;2.53;;
54899;SDS011;40801;41.924;25.562;2022-07-11T08:18:41;2.42;;;2.33;;
54899;SDS011;40801;41.924;25.562;2022-07-11T08:21:07;2.80;;;2.60;;
54899;SDS011;40801;41.924;25.562;2022-07-11T08:23:32;3.28;;;2.47;;
54899;SDS011;40801;41.924;25.562;2022-07-11T08:25:58;2.85;;;2.65;;
54899;SDS011;40801;41.924;25.562;2022-07-11T08:28:23;5.22;;;2.65;;
54899;SDS011;40801;41.924;25.562;2022-07-11T08:30:49;2.60;;;2.47;;
54899;SDS011;40801;41.924;25.562;2022-07-11T08:33:14;2.42;;;2.30;;
54899;SDS011;40801;41.924;25.562;2022-07-11T08:35:40;3.00;;;2.80;;
54899;SDS011;40801;41.924;25.562;2022-07-11T08:38:05;2.78;;;2.58;;
54899;SDS011;40801;41.924;25.562;2022-07-11T08:40:30;3.00;;;2.45;;
54899;SDS011;40801;41.924;25.562;2022-07-11T08:42:56;2.67;;;2.47;;
54899;SDS011;40801;41.924;25.562;2022-07-11T08:45:27;2.72;;;2.63;;
54899;SDS011;40801;41.924;25.562;2022-07-11T08:47:54;3.67;;;3.38;;
54899;SDS011;40801;41.924;25.562;2022-07-11T08:50:22;2.47;;;2.28;;
54899;SDS011;40801;41.924;25.562;2022-07-11T08:52:48;2.70;;;2.50;;
54899;SDS011;40801;41.924;25.562;2022-07-11T08:55:13;2.80;;;2.55;;
54899;SDS011;40801;41.924;25.562;2022-07-11T08:57:39;2.90;;;2.70;;
54899;SDS011;40801;41.924;25.562;2022-07-11T09:00:05;2.40;;;2.20;;
54899;SDS011;40801;41.924;25.562;2022-07-11T09:02:34;3.03;;;2.15;;
54899;SDS011;40801;41.924;25.562;2022-07-11T09:05:01;2.08;;;1.73;;
54899;SDS011;40801;41.924;25.562;2022-07-11T09:07:30;2.40;;;2.20;;
54899;SDS011;40801;41.924;25.562;2022-07-11T09:09:56;3.28;;;2.20;;
54899;SDS011;40801;41.924;25.562;2022-07-11T09:12:22;1.83;;;1.60;;
54899;SDS011;40801;41.924;25.562;2022-07-11T09:14:48;1.83;;;1.77;;
54899;SDS011;40801;41.924;25.562;2022-07-11T09:17:14;2.40;;;2.28;;
54899;SDS011;40801;41.924;25.562;2022-07-11T09:19:40;1.50;;;1.40;;
54899;SDS011;40801;41.924;25.562;2022-07-11T09:22:10;2.50;;;1.92;;
54899;SDS011;40801;41.924;25.562;2022-07-11T09:27:39;1.80;;;1.70;;
54899;SDS011;40801;41.924;25.562;2022-07-11T09:30:15;1.90;;;1.80;;
54899;SDS011;40801;41.924;25.562;2022-07-11T09:35:41;2.70;;;1.70;;
54899;SDS011;40801;41.924;25.562;2022-07-11T09:38:11;1.73;;;1.63;;
54899;SDS011;40801;41.924;25.562;2022-07-11T09:40:38;4.55;;;1.60;;
54899;SDS011;40801;41.924;25.562;2022-07-11T09:43:07;3.08;;;1.70;;
54899;SDS011;40801;41.924;25.562;2022-07-11T09:45:33;1.52;;;1.50;;
54899;SDS011;40801;41.924;25.562;2022-07-11T09:48:12;2.05;;;1.42;;
54899;SDS011;40801;41.924;25.562;2022-07-11T09:50:38;2.35;;;1.58;;
54899;SDS011;40801;41.924;25.562;2022-07-11T09:53:12;2.10;;;1.17;;
54899;SDS011;40801;41.924;25.562;2022-07-11T09:55:40;1.23;;;1.23;;
54899;SDS011;40801;41.924;25.562;2022-07-11T09:58:08;2.78;;;1.83;;
54899;SDS011;40801;41.924;25.562;2022-07-11T10:00:38;3.03;;;1.57;;
54899;SDS011;40801;41.924;25.562;2022-07-11T10:03:04;1.90;;;1.73;;
54899;SDS011;40801;41.924;25.562;2022-07-11T10:05:31;2.47;;;1.73;;
54899;SDS011;40801;41.924;25.562;2022-07-11T10:07:57;1.98;;;1.80;;
54899;SDS011;40801;41.924;25.562;2022-07-11T10:10:24;1.90;;;1.30;;
54899;SDS011;40801;41.924;25.562;2022-07-11T10:12:51;2.60;;;1.55;;
54899;SDS011;40801;41.924;25.562;2022-07-11T10:15:22;2.58;;;1.20;;
54899;SDS011;40801;41.924;25.562;2022-07-11T10:28:34;2.73;;;1.40;;
54899;SDS011;40801;41.924;25.562;2022-07-11T10:31:19;2.30;;;1.48;;
54899;SDS011;40801;41.924;25.562;2022-07-11T10:34:02;1.83;;;1.48;;
54899;SDS011;40801;41.924;25.562;2022-07-11T10:36:29;5.10;;;1.70;;
54899;SDS011;40801;41.924;25.562;2022-07-11T10:39:22;2.40;;;2.20;;
54899;SDS011;40801;41.924;25.562;2022-07-11T10:44:18;3.05;;;1.88;;
54899;SDS011;40801;41.924;25.562;2022-07-11T10:46:43;3.30;;;1.40;;
54899;SDS011;40801;41.924;25.562;2022-07-11T10:54:11;1.73;;;1.38;;
54899;SDS011;40801;41.924;25.562;2022-07-11T11:11:46;2.70;;;1.75;;
54899;SDS011;40801;41.924;25.562;2022-07-11T11:13:45;2.05;;;1.38;;
54899;SDS011;40801;41.924;25.562;2022-07-11T11:16:21;1.40;;;1.40;;
54899;SDS011;40801;41.924;25.562;2022-07-11T11:18:47;1.92;;;1.50;;
54899;SDS011;40801;41.924;25.562;2022-07-11T11:21:13;1.20;;;1.20;;
54899;SDS011;40801;41.924;25.562;2022-07-11T11:26:14;1.40;;;1.30;;
54899;SDS011;40801;41.924;25.562;2022-07-11T11:29:04;1.60;;;1.50;;
54899;SDS011;40801;41.924;25.562;2022-07-11T11:31:31;1.55;;;1.25;;
54899;SDS011;40801;41.924;25.562;2022-07-11T11:33:58;2.60;;;1.75;;
54899;SDS011;40801;41.924;25.562;2022-07-11T11:36:26;1.47;;;1.37;;
54899;SDS011;40801;41.924;25.562;2022-07-11T11:38:52;1.60;;;1.50;;
54899;SDS011;40801;41.924;25.562;2022-07-11T11:41:22;1.88;;;1.60;;
54899;SDS011;40801;41.924;25.562;2022-07-11T11:43:56;1.70;;;1.48;;
54899;SDS011;40801;41.924;25.562;2022-07-11T11:46:26;1.60;;;1.50;;
54899;SDS011;40801;41.924;25.562;2022-07-11T11:48:58;1.50;;;1.50;;
54899;SDS011;40801;41.924;25.562;2022-07-11T11:51:26;1.95;;;1.70;;
54899;SDS011;40801;41.924;25.562;2022-07-11T11:53:56;2.35;;;1.58;;
54899;SDS011;40801;41.924;25.562;2022-07-11T11:56:32;1.48;;;1.30;;
54899;SDS011;40801;41.924;25.562;2022-07-11T11:59:00;2.25;;;2.10;;
54899;SDS011;40801;41.924;25.562;2022-07-11T12:01:27;1.77;;;1.67;;
54899;SDS011;40801;41.924;25.562;2022-07-11T12:03:54;2.10;;;1.55;;
54899;SDS011;40801;41.924;25.562;2022-07-11T12:06:21;4.70;;;1.27;;
54899;SDS011;40801;41.924;25.562;2022-07-11T12:08:49;1.20;;;0.93;;
54899;SDS011;40801;41.924;25.562;2022-07-11T12:11:16;1.75;;;1.52;;
54899;SDS011;40801;41.924;25.562;2022-07-11T12:13:42;5.18;;;1.17;;
54899;SDS011;40801;41.924;25.562;2022-07-11T12:16:15;1.30;;;1.20;;
54899;SDS011;40801;41.924;25.562;2022-07-11T12:19:00;1.10;;;1.10;;
54899;SDS011;40801;41.924;25.562;2022-07-11T12:21:30;2.93;;;1.50;;
54899;SDS011;40801;41.924;25.562;2022-07-11T12:23:59;1.77;;;1.65;;
54899;SDS011;40801;41.924;25.562;2022-07-11T12:26:29;4.50;;;1.80;;
54899;SDS011;40801;41.924;25.562;2022-07-11T12:29:16;2.33;;;1.20;;
54899;SDS011;40801;41.924;25.562;2022-07-11T12:31:51;4.53;;;1.50;;
54899;SDS011;40801;41.924;25.562;2022-07-11T12:34:22;2.22;;;1.20;;
54899;SDS011;40801;41.924;25.562;2022-07-11T12:39:29;2.13;;;1.88;;
54899;SDS011;40801;41.924;25.562;2022-07-11T12:41:57;1.42;;;1.00;;
54899;SDS011;40801;41.924;25.562;2022-07-11T12:44:24;2.65;;;1.60;;
54899;SDS011;40801;41.924;25.562;2022-07-11T12:47:14;2.38;;;1.13;;
54899;SDS011;40801;41.924;25.562;2022-07-11T12:54:35;2.28;;;1.67;;
54899;SDS011;40801;41.924;25.562;2022-07-11T12:57:01;1.48;;;1.40;;
54899;SDS011;40801;41.924;25.562;2022-07-11T12:59:27;2.85;;;1.50;;
54899;SDS011;40801;41.924;25.562;2022-07-11T13:02:01;5.40;;;1.60;;
54899;SDS011;40801;41.924;25.562;2022-07-11T13:10:04;2.40;;;1.65;;
54899;SDS011;40801;41.924;25.562;2022-07-11T13:12:30;2.55;;;1.65;;
54899;SDS011;40801;41.924;25.562;2022-07-11T13:14:59;1.63;;;1.52;;
54899;SDS011;40801;41.924;25.562;2022-07-11T13:17:35;2.03;;;1.50;;
54899;SDS011;40801;41.924;25.562;2022-07-11T13:20:05;1.60;;;1.50;;
54899;SDS011;40801;41.924;25.562;2022-07-11T13:22:32;2.22;;;1.63;;
54899;SDS011;40801;41.924;25.562;2022-07-11T13:24:58;1.83;;;1.52;;
54899;SDS011;40801;41.924;25.562;2022-07-11T13:27:23;2.63;;;1.30;;
54899;SDS011;40801;41.924;25.562;2022-07-11T13:29:49;1.70;;;1.13;;
54899;SDS011;40801;41.924;25.562;2022-07-11T13:32:14;2.28;;;1.52;;
54899;SDS011;40801;41.924;25.562;2022-07-11T13:34:39;1.58;;;1.23;;
54899;SDS011;40801;41.924;25.562;2022-07-11T13:37:05;1.10;;;1.10;;
54899;SDS011;40801;41.924;25.562;2022-07-11T13:39:30;1.85;;;1.75;;
54899;SDS011;40801;41.924;25.562;2022-07-11T13:41:56;2.00;;;1.63;;
54899;SDS011;40801;41.924;25.562;2022-07-11T13:44:21;2.00;;;1.90;;
54899;SDS011;40801;41.924;25.562;2022-07-11T13:46:46;1.35;;;1.35;;
54899;SDS011;40801;41.924;25.562;2022-07-11T13:49:12;1.63;;;1.52;;
54899;SDS011;40801;41.924;25.562;2022-07-11T13:51:38;2.85;;;1.92;;
54899;SDS011;40801;41.924;25.562;2022-07-11T13:54:04;2.13;;;1.60;;
54899;SDS011;40801;41.924;25.562;2022-07-11T13:56:30;3.05;;;1.58;;
54899;SDS011;40801;41.924;25.562;2022-07-11T13:58:56;1.90;;;1.80;;
54899;SDS011;40801;41.924;25.562;2022-07-11T14:01:21;2.28;;;2.00;;
54899;SDS011;40801;41.924;25.562;2022-07-11T14:03:46;2.35;;;2.03;;
54899;SDS011;40801;41.924;25.562;2022-07-11T14:06:12;1.85;;;1.75;;
54899;SDS011;40801;41.924;25.562;2022-07-11T14:08:38;2.45;;;2.10;;
54899;SDS011;40801;41.924;25.562;2022-07-11T14:11:03;2.72;;;2.00;;
54899;SDS011;40801;41.924;25.562;2022-07-11T14:13:28;1.92;;;1.80;;
54899;SDS011;40801;41.924;25.562;2022-07-11T14:15:54;9.20;;;3.35;;
54899;SDS011;40801;41.924;25.562;2022-07-11T14:18:20;1.90;;;1.80;;
54899;SDS011;40801;41.924;25.562;2022-07-11T14:20:46;1.83;;;1.73;;
54899;SDS011;40801;41.924;25.562;2022-07-11T14:23:11;1.73;;;1.63;;
54899;SDS011;40801;41.924;25.562;2022-07-11T14:25:37;1.73;;;1.70;;
54899;SDS011;40801;41.924;25.562;2022-07-11T14:28:02;1.67;;;1.58;;
54899;SDS011;40801;41.924;25.562;2022-07-11T14:30:28;1.70;;;1.60;;
54899;SDS011;40801;41.924;25.562;2022-07-11T14:32:54;2.20;;;2.00;;
54899;SDS011;40801;41.924;25.562;2022-07-11T14:35:19;2.88;;;1.83;;
54899;SDS011;40801;41.924;25.562;2022-07-11T14:37:45;2.28;;;2.08;;
54899;SDS011;40801;41.924;25.562;2022-07-11T14:40:10;2.10;;;1.95;;
54899;SDS011;40801;41.924;25.562;2022-07-11T14:42:36;1.73;;;1.63;;
54899;SDS011;40801;41.924;25.562;2022-07-11T14:45:02;2.17;;;1.73;;
54899;SDS011;40801;41.924;25.562;2022-07-11T14:47:28;2.65;;;2.33;;
54899;SDS011;40801;41.924;25.562;2022-07-11T14:49:53;2.42;;;2.05;;
54899;SDS011;40801;41.924;25.562;2022-07-11T14:52:19;1.70;;;1.58;;
54899;SDS011;40801;41.924;25.562;2022-07-11T14:54:44;8.82;;;5.90;;
54899;SDS011;40801;41.924;25.562;2022-07-11T14:57:10;2.15;;;1.95;;
54899;SDS011;40801;41.924;25.562;2022-07-11T14:59:35;2.90;;;1.80;;
54899;SDS011;40801;41.924;25.562;2022-07-11T15:02:01;2.22;;;1.73;;
54899;SDS011;40801;41.924;25.562;2022-07-11T15:04:27;2.42;;;2.22;;
54899;SDS011;40801;41.924;25.562;2022-07-11T15:06:52;1.80;;;1.70;;
54899;SDS011;40801;41.924;25.562;2022-07-11T15:09:36;4.47;;;2.67;;
54899;SDS011;40801;41.924;25.562;2022-07-11T15:12:20;1.67;;;1.60;;
54899;SDS011;40801;41.924;25.562;2022-07-11T15:14:46;3.08;;;2.78;;
54899;SDS011;40801;41.924;25.562;2022-07-11T15:17:11;2.00;;;1.90;;
54899;SDS011;40801;41.924;25.562;2022-07-11T15:19:37;2.47;;;1.70;;
54899;SDS011;40801;41.924;25.562;2022-07-11T15:22:04;1.92;;;1.83;;
54899;SDS011;40801;41.924;25.562;2022-07-11T15:24:30;2.30;;;2.13;;
54899;SDS011;40801;41.924;25.562;2022-07-11T15:26:56;2.95;;;2.00;;